createdAt,value
2023-05-21T00:02:45.158Z,62.21
2023-05-21T00:07:48.303Z,62.82
2023-05-21T00:12:50.020Z,63.57
2023-05-21T00:17:52.047Z,63.02
2023-05-21T00:22:55.205Z,63.06
2023-05-21T00:27:56.959Z,62.98
2023-05-21T00:33:02.474Z,62.74
2023-05-21T00:38:07.529Z,62.88
2023-05-21T00:43:12.037Z,63.31
2023-05-21T00:48:14.895Z,63.21
2023-05-21T00:53:19.427Z,63.08
2023-05-21T00:58:21.308Z,63.29
2023-05-21T01:03:23.134Z,62.83
2023-05-21T01:08:27.154Z,63.60
2023-05-21T01:13:29.005Z,63.43
2023-05-21T01:18:35.025Z,62.92
2023-05-21T01:23:38.061Z,63.10
2023-05-21T01:28:39.920Z,63.13
2023-05-21T01:33:44.609Z,63.55
2023-05-21T01:38:50.004Z,63.48
2023-05-21T01:43:51.698Z,63.08
2023-05-21T01:48:53.438Z,63.40
2023-05-21T01:53:56.597Z,64.37
2023-05-21T01:58:59.571Z,64.16
2023-05-21T02:04:01.808Z,63.91
2023-05-21T02:09:05.066Z,63.70
2023-05-21T02:14:07.925Z,64.19
2023-05-21T02:19:10.546Z,63.93
2023-05-21T02:24:14.086Z,63.70
2023-05-21T02:29:15.916Z,64.00
2023-05-21T02:34:20.507Z,63.86
2023-05-21T02:39:23.666Z,63.68
2023-05-21T02:44:25.889Z,63.62
2023-05-21T02:49:27.613Z,63.96
2023-05-21T02:54:30.958Z,64.10
2023-05-21T02:59:32.807Z,64.16
2023-05-21T03:04:38.900Z,64.53
2023-05-21T03:09:42.391Z,64.44
2023-05-21T03:14:46.272Z,64.43
2023-05-21T03:19:49.144Z,64.47
2023-05-21T03:24:53.400Z,64.18
2023-05-21T03:29:55.796Z,64.68
2023-05-21T03:34:57.870Z,64.75
2023-05-21T03:40:00.961Z,64.80
2023-05-21T03:45:03.218Z,65.12
2023-05-21T03:50:34.012Z,65.19
2023-05-21T03:55:37.305Z,65.67
2023-05-21T04:00:39.258Z,65.28
2023-05-21T04:05:42.384Z,65.34
2023-05-21T04:10:45.654Z,65.19
2023-05-21T04:15:47.714Z,65.51
2023-05-21T04:20:50.481Z,65.70
2023-05-21T04:25:53.948Z,65.93
2023-05-21T04:30:59.373Z,65.44
2023-05-21T04:36:01.309Z,65.27
2023-05-21T04:41:04.716Z,65.62
2023-05-21T04:46:07.553Z,65.99
2023-05-21T04:51:09.526Z,65.65
2023-05-21T04:56:12.593Z,65.68
2023-05-21T05:01:14.754Z,65.60
2023-05-21T05:06:16.747Z,65.84
2023-05-21T05:11:19.820Z,65.97
2023-05-21T05:16:25.713Z,65.79
2023-05-21T05:21:27.977Z,65.94
2023-05-21T05:26:31.299Z,65.81
2023-05-21T05:31:33.218Z,65.98
2023-05-21T05:36:35.371Z,65.83
2023-05-21T05:41:39.694Z,65.77
2023-05-21T05:46:41.590Z,65.85
2023-05-21T05:51:43.360Z,65.64
2023-05-21T05:56:46.556Z,65.50
2023-05-21T06:01:48.396Z,65.35
2023-05-21T06:06:52.379Z,64.59
2023-05-21T06:11:55.639Z,64.31
2023-05-21T06:16:57.371Z,64.14
2023-05-21T06:22:00.870Z,63.42
2023-05-21T06:27:04.369Z,63.12
2023-05-21T06:32:07.762Z,63.51
2023-05-21T06:37:09.624Z,61.94
2023-05-21T06:42:12.701Z,62.05
2023-05-21T06:47:21.568Z,61.89
2023-05-21T06:52:24.376Z,61.94
2023-05-21T06:57:27.606Z,61.78
2023-05-21T07:02:29.582Z,60.81
2023-05-21T07:07:31.539Z,60.42
2023-05-21T07:12:35.760Z,59.40
2023-05-21T07:17:38.818Z,59.62
2023-05-21T07:22:41.489Z,58.38
2023-05-21T07:27:45.567Z,57.60
2023-05-21T07:32:47.344Z,56.89
2023-05-21T07:37:49.418Z,57.03
2023-05-21T07:42:52.545Z,56.19
2023-05-21T07:47:57.051Z,55.68
2023-05-21T07:52:59.910Z,54.95
2023-05-21T07:58:03.177Z,56.35
2023-05-21T08:03:07.978Z,56.54
2023-05-21T08:08:11.580Z,56.63
2023-05-21T08:13:16.368Z,56.83
2023-05-21T08:18:18.492Z,55.80
2023-05-21T08:23:21.531Z,54.84
2023-05-21T08:28:29.933Z,53.38
2023-05-21T08:33:31.804Z,53.83
2023-05-21T08:38:34.027Z,53.98
2023-05-21T08:43:50.258Z,51.65
2023-05-21T08:48:55.081Z,51.99
2023-05-21T08:53:58.890Z,51.69
2023-05-21T08:59:02.039Z,51.18
2023-05-21T09:04:20.357Z,50.29
2023-05-21T09:09:28.294Z,50.81
2023-05-21T09:14:31.810Z,49.77
2023-05-21T09:20:14.870Z,49.47
2023-05-21T09:25:23.492Z,48.81
2023-05-21T09:30:30.027Z,49.43
2023-05-21T09:35:33.404Z,49.26
2023-05-21T09:40:35.706Z,48.67
2023-05-21T09:45:39.081Z,48.95
2023-05-21T09:50:40.988Z,48.25
2023-05-21T09:55:43.236Z,47.75
2023-05-21T10:00:46.299Z,47.15
2023-05-21T10:05:48.011Z,47.61
2023-05-21T10:10:49.699Z,47.11
2023-05-21T10:15:54.927Z,47.84
2023-05-21T10:20:56.717Z,47.48
2023-05-21T10:25:58.457Z,47.39
2023-05-21T10:31:01.616Z,46.97
2023-05-21T10:36:03.747Z,47.82
2023-05-21T10:41:06.707Z,48.85
2023-05-21T10:46:19.656Z,47.86
2023-05-21T10:51:23.748Z,47.67
2023-05-21T10:56:28.631Z,47.98
2023-05-21T11:01:33.933Z,47.98
2023-05-21T11:06:35.854Z,48.74
2023-05-21T11:11:43.890Z,48.98
2023-05-21T11:16:47.013Z,49.71
2023-05-21T11:21:50.646Z,47.86
2023-05-21T11:27:04.198Z,49.26
2023-05-21T11:32:09.186Z,49.55
2023-05-21T11:37:25.340Z,47.94
2023-05-21T11:42:31.105Z,47.35
2023-05-21T11:47:34.247Z,46.17
2023-05-21T11:52:36.017Z,44.39
2023-05-21T11:57:38.208Z,46.87
2023-05-21T12:02:44.354Z,46.31
2023-05-21T12:07:48.781Z,44.19
2023-05-21T12:12:56.621Z,43.76
2023-05-21T12:18:01.258Z,43.64
2023-05-21T12:23:03.084Z,43.91
2023-05-21T12:28:05.377Z,43.52
2023-05-21T12:33:08.485Z,43.08
2023-05-21T12:38:10.331Z,44.56
2023-05-21T12:43:12.122Z,43.82
2023-05-21T12:48:15.116Z,42.92
2023-05-21T12:53:16.835Z,43.42
2023-05-21T12:58:21.963Z,42.61
2023-05-21T13:03:25.659Z,43.34
2023-05-21T13:08:27.525Z,44.66
2023-05-21T13:13:29.258Z,40.39
2023-05-21T13:18:32.280Z,41.98
2023-05-21T13:23:34.033Z,42.48
2023-05-21T13:28:35.766Z,43.53
2023-05-21T13:33:38.964Z,44.40
2023-05-21T13:38:40.747Z,43.72
2023-05-21T13:43:42.590Z,43.51
2023-05-21T13:48:45.638Z,43.74
2023-05-21T13:53:47.484Z,44.80
2023-05-21T13:58:49.243Z,45.04
2023-05-21T14:03:52.314Z,45.17
2023-05-21T14:08:54.134Z,44.69
2023-05-21T14:13:56.139Z,44.97
2023-05-21T14:18:59.300Z,44.92
2023-05-21T14:24:01.125Z,46.91
2023-05-21T14:29:02.887Z,47.29
2023-05-21T14:34:08.948Z,47.64
2023-05-21T14:39:10.658Z,47.80
2023-05-21T14:44:12.425Z,47.20
2023-05-21T14:49:15.448Z,47.94
2023-05-21T14:54:17.211Z,47.08
2023-05-21T14:59:19.032Z,44.82
2023-05-21T15:04:22.180Z,43.05
2023-05-21T15:09:24.136Z,42.20
2023-05-21T15:14:25.892Z,42.39
2023-05-21T15:19:28.985Z,42.47
2023-05-21T15:24:30.792Z,42.38
2023-05-21T15:29:32.597Z,43.07
2023-05-21T15:34:35.811Z,41.00
2023-05-21T15:39:37.771Z,42.22
2023-05-21T15:44:39.541Z,41.76
2023-05-21T15:49:42.949Z,42.17
2023-05-21T15:54:44.714Z,41.65
2023-05-21T15:59:46.490Z,41.83
2023-05-21T16:04:51.675Z,40.32
2023-05-21T16:09:53.400Z,39.59
2023-05-21T16:14:55.229Z,39.79
2023-05-21T16:19:58.368Z,40.08
2023-05-21T16:25:00.154Z,40.27
2023-05-21T16:30:02.050Z,40.96
2023-05-21T16:35:06.561Z,40.46
2023-05-21T16:40:09.651Z,40.56
2023-05-21T16:45:19.376Z,40.24
2023-05-21T16:50:22.697Z,41.04
2023-05-21T16:55:24.514Z,40.21
2023-05-21T17:00:26.359Z,41.00
2023-05-21T17:05:29.513Z,40.89
2023-05-21T17:10:31.465Z,40.44
2023-05-21T17:15:33.285Z,40.30
2023-05-21T17:20:36.365Z,40.71
2023-05-21T17:25:38.242Z,41.53
2023-05-21T17:30:40.424Z,41.27
2023-05-21T17:35:43.509Z,41.20
2023-05-21T17:40:45.266Z,41.84
2023-05-21T17:45:47.026Z,40.96
2023-05-21T17:50:51.002Z,41.76
2023-05-21T17:55:53.191Z,41.66
2023-05-21T18:00:54.920Z,40.88
2023-05-21T18:05:58.056Z,41.41
2023-05-21T18:11:01.546Z,42.34
2023-05-21T18:16:03.349Z,43.29
2023-05-21T18:21:06.422Z,43.58
2023-05-21T18:26:08.180Z,44.04
2023-05-21T18:31:10.118Z,44.73
2023-05-21T18:36:13.156Z,45.00
2023-05-21T18:41:14.900Z,45.19
2023-05-21T18:46:16.688Z,44.93
2023-05-21T18:51:19.962Z,45.35
2023-05-21T18:56:21.959Z,45.48
2023-05-21T19:01:23.899Z,45.44
2023-05-21T19:06:27.678Z,46.44
2023-05-21T19:11:34.191Z,46.31
2023-05-21T19:16:36.119Z,46.99
2023-05-21T19:21:39.298Z,46.48
2023-05-21T19:26:41.055Z,46.74
2023-05-21T19:31:42.808Z,46.49
2023-05-21T19:36:53.516Z,46.96
2023-05-21T19:41:56.367Z,47.66
2023-05-21T19:46:58.925Z,48.08
2023-05-21T19:52:02.458Z,48.83
2023-05-21T19:57:04.737Z,49.44
2023-05-21T20:02:06.662Z,49.82
2023-05-21T20:07:10.228Z,50.42
2023-05-21T20:12:12.644Z,50.36
2023-05-21T20:17:14.800Z,50.89
2023-05-21T20:22:18.063Z,50.99
2023-05-21T20:27:19.962Z,50.78
2023-05-21T20:32:22.064Z,50.03
2023-05-21T20:37:26.375Z,49.66
2023-05-21T20:42:30.928Z,49.79
2023-05-21T20:47:33.814Z,50.14
2023-05-21T20:52:37.033Z,50.50
2023-05-21T20:57:38.836Z,49.39
2023-05-21T21:02:40.637Z,48.95
2023-05-21T21:07:45.576Z,48.70
2023-05-21T21:12:47.541Z,49.27
2023-05-21T21:17:49.498Z,49.90
2023-05-21T21:22:52.663Z,49.83
2023-05-21T21:27:54.780Z,50.28
2023-05-21T21:32:56.587Z,50.22
2023-05-21T21:37:59.727Z,50.64
2023-05-21T21:43:01.469Z,52.19
2023-05-21T21:48:03.273Z,51.26
2023-05-21T21:53:06.397Z,50.03
2023-05-21T21:58:08.136Z,50.21
2023-05-21T22:03:11.584Z,50.18
2023-05-21T22:08:16.178Z,50.10
2023-05-21T22:13:17.903Z,49.38
2023-05-21T22:18:31.916Z,48.96
2023-05-21T22:23:42.331Z,48.74
2023-05-21T22:28:44.100Z,48.61
2023-05-21T22:33:45.920Z,47.90
2023-05-21T22:38:48.988Z,48.51
2023-05-21T22:43:50.687Z,48.45
2023-05-21T22:48:53.866Z,48.13
2023-05-21T22:53:56.968Z,47.51
2023-05-21T22:58:59.514Z,48.58
2023-05-21T23:04:01.390Z,47.73
2023-05-21T23:09:04.894Z,48.11
2023-05-21T23:14:06.802Z,48.58
2023-05-21T23:19:08.570Z,48.64
2023-05-21T23:24:11.671Z,48.63
2023-05-21T23:29:13.481Z,48.86
2023-05-21T23:34:15.225Z,48.92
2023-05-21T23:39:18.465Z,49.32
2023-05-21T23:44:21.000Z,49.20
2023-05-21T23:49:22.707Z,48.63
2023-05-21T23:54:25.783Z,49.10
2023-05-21T23:59:27.541Z,49.46
